Susan Ann — WCY5700 — position and weather

sailwx.info

Track history (hours):
 
Tides and Currents Weather Stations Pressure Air Temp Water Temp Dewpoint Dewpoint Depression Visibility Wind Speed Wind Dir Waves Ship Positions

Susan Ann

Owner: CROSS SOUND FERRY SERVICES INC, NEW LONDON, CT. More information available from US FCC via Universal Licensing System and Coast Guard Vessel Documentation Center.

Last reported at 2018-Apr-20 16:00 UTC. Time now 2018-Apr-20 16:48 UTC.
Position N 41°11' W 072°14'.

Length 72 m; draft 4 m.

Type: Passenger vessel. MMSI: 367354350.

Date/timePositionNaut miles runAvg speedWind from/ knotsBaromVisibWave heightAir tempDewpointWater temp
2018-Apr-20 16:00N 41°11' W 072°14'5 2.2
2018-Apr-20 13:44N 41°14' W 072°09'313.4
2018-Apr-20 13:30N 41°12' W 072°12'2 1.2
2018-Apr-20 12:06N 41°11' W 072°13'212.3
2018-Apr-20 11:56N 41°12' W 072°12'6 0.5
2018-Apr-19 23:55N 41°17' W 072°06'9 5.1
2018-Apr-19 22:12N 41°10' W 072°13'211.4
2018-Apr-19 22:00N 41°12' W 072°12'7 3.4
2018-Apr-19 19:52N 41°17' W 072°05'10 5.5
2018-Apr-19 18:08N 41°09' W 072°13'212.6
2018-Apr-19 17:59N 41°11' W 072°13'6 2.8
2018-Apr-19 15:51N 41°16' W 072°08'411.7
2018-Apr-19 15:28N 41°12' W 072°12'2 1.4
2018-Apr-19 13:58N 41°11' W 072°13'8 3.9
2018-Apr-19 11:54N 41°17' W 072°06'613.7
2018-Apr-19 11:30N 41°13' W 072°11'4 0.4
2018-Apr-19 00:14N 41°09' W 072°14'2 8.9
2018-Apr-18 23:59N 41°11' W 072°13'613.3
2018-Apr-18 23:30N 41°16' W 072°07'2 1.0
2018-Apr-18 21:53N 41°17' W 072°05'615.0
2018-Apr-18 21:29N 41°12' W 072°11'4 3.3
2018-Apr-18 20:19N 41°09' W 072°14'310.8
2018-Apr-18 20:00N 41°12' W 072°12'6 2.8
2018-Apr-18 17:57N 41°16' W 072°07'613.6
2018-Apr-18 17:30N 41°12' W 072°13'2 1.2
2018-Apr-18 16:13N 41°11' W 072°14'313.6
2018-Apr-18 16:01N 41°13' W 072°11'4 1.7
2018-Apr-18 13:49N 41°16' W 072°08'513.1
2018-Apr-18 13:27N 41°12' W 072°12'3 2.2
2018-Apr-18 12:15N 41°10' W 072°13'310.7
2018-Apr-18 12:00N 41°12' W 072°12'7 0.5
2018-Apr-17 23:49N 41°16' W 072°06'413.3
2018-Apr-17 23:31N 41°13' W 072°10'5 3.6
2018-Apr-17 22:13N 41°10' W 072°13'210.8
2018-Apr-17 22:00N 41°12' W 072°12'6 2.6
2018-Apr-17 19:50N 41°15' W 072°06'615.9
2018-Apr-17 19:28N 41°12' W 072°13'2 1.7
2018-Apr-17 18:18N 41°10' W 072°13'410.6
2018-Apr-17 17:54N 41°13' W 072°10'2 1.1
2018-Apr-17 15:48N 41°15' W 072°08'412.2
2018-Apr-17 15:29N 41°12' W 072°12'3 2.4
2018-Apr-17 14:12N 41°09' W 072°13'311.2
2018-Apr-17 13:55N 41°12' W 072°12'5 2.1
2018-Apr-17 11:42N 41°15' W 072°07'313.3
2018-Apr-17 11:27N 41°13' W 072°11'4 0.4
2018-Apr-17 01:15N 41°09' W 072°14'2 9.9
2018-Apr-17 01:00N 41°12' W 072°13'8 3.8
2018-Apr-16 22:53N 41°17' W 072°06'513.5
2018-Apr-16 22:30N 41°13' W 072°10'5 4.0
2018-Apr-16 21:16N 41°09' W 072°14'311.2
2018-Apr-16 21:00N 41°12' W 072°12'3 0.1
2018-Apr-16 01:24N 41°14' W 072°11'510.8
2018-Apr-16 00:54N 41°09' W 072°14'1 1.0
2018-Apr-16 00:16N 41°09' W 072°13'312.3
2018-Apr-16 00:01N 41°12' W 072°11'2 1.0
2018-Apr-15 21:44N 41°15' W 072°10'312.6
2018-Apr-15 21:29N 41°12' W 072°13'3 2.3
2018-Apr-15 20:13N 41°09' W 072°13'211.1
2018-Apr-15 20:01N 41°11' W 072°12'5 2.4
2018-Apr-15 17:48N 41°15' W 072°07'514.7
2018-Apr-15 17:27N 41°12' W 072°12'3 2.2
2018-Apr-15 16:14N 41°09' W 072°13'312.6
2018-Apr-15 16:00N 41°12' W 072°12'4 2.1
2018-Apr-15 13:56N 41°15' W 072°08'511.6
2018-Apr-15 13:29N 41°12' W 072°13'3 2.2
2018-Apr-15 12:16N 41°09' W 072°14'310.3
2018-Apr-15 12:00N 41°12' W 072°13'7 0.6
2018-Apr-15 00:06N 41°17' W 072°06'112.6
2018-Apr-14 23:59N 41°16' W 072°07'511.4
2018-Apr-14 23:31N 41°12' W 072°12'3 2.3
2018-Apr-14 22:17N 41°09' W 072°14'311.2
2018-Apr-14 22:00N 41°12' W 072°12'5 2.2
2018-Apr-14 19:46N 41°15' W 072°07'414.7
2018-Apr-14 19:29N 41°13' W 072°11'4 3.2
2018-Apr-14 18:16N 41°09' W 072°14'311.6
2018-Apr-14 18:01N 41°12' W 072°12'5 2.5
2018-Apr-14 15:49N 41°15' W 072°07'514.3
2018-Apr-14 15:29N 41°12' W 072°11'3 2.7
2018-Apr-14 14:14N 41°09' W 072°14'311.3
2018-Apr-14 14:00N 41°12' W 072°13'7 3.6
2018-Apr-14 12:02N 41°17' W 072°06'113.0
2018-Apr-14 11:59N 41°16' W 072°07'612.3
2018-Apr-14 11:31N 41°12' W 072°12'3 0.3
2018-Apr-14 00:12N 41°09' W 072°14'210.6
2018-Apr-14 00:00N 41°11' W 072°13'7 3.4
2018-Apr-13 21:52N 41°16' W 072°07'513.0
2018-Apr-13 21:28N 41°12' W 072°11'2 1.8
2018-Apr-13 20:05N 41°11' W 072°14'112.7
2018-Apr-13 19:58N 41°12' W 072°13'4 1.7
2018-Apr-13 17:35N 41°14' W 072°09'115.1
2018-Apr-13 17:30N 41°13' W 072°10'3 2.2
2018-Apr-13 16:02N 41°11' W 072°13'113.0
2018-Apr-13 15:58N 41°12' W 072°13'6 2.9
2018-Apr-13 13:52N 41°16' W 072°07'612.8
2018-Apr-13 13:26N 41°12' W 072°12'2 1.2
2018-Apr-13 11:57N 41°11' W 072°13'7 0.5
2018-Apr-12 23:46N 41°15' W 072°07'412.4
2018-Apr-12 23:26N 41°12' W 072°11'4 3.0
2018-Apr-12 22:11N 41°09' W 072°14'210.3
2018-Apr-12 22:00N 41°11' W 072°13'7 3.1
2018-Apr-12 19:50N 41°16' W 072°07'513.8
2018-Apr-12 19:30N 41°12' W 072°11'3 2.5
2018-Apr-12 18:09N 41°10' W 072°13'211.9
2018-Apr-12 18:00N 41°11' W 072°13'8 3.6
2018-Apr-12 15:50N 41°17' W 072°06'514.3
2018-Apr-12 15:30N 41°13' W 072°10'5 3.4
2018-Apr-12 14:07N 41°09' W 072°13'213.5
2018-Apr-12 14:00N 41°11' W 072°14'8 3.5
2018-Apr-12 11:50N 41°16' W 072°07'412.7
2018-Apr-12 11:30N 41°13' W 072°10'4 0.3
2018-Apr-12 00:00N 41°11' W 072°13'713.9
2018-Apr-11 23:30N 41°16' W 072°08'1 0.8
2018-Apr-11 21:56N 41°16' W 072°06'612.7
2018-Apr-11 21:27N 41°12' W 072°12'3 2.5
2018-Apr-11 20:11N 41°09' W 072°14'311.1
2018-Apr-11 19:55N 41°12' W 072°13'7 3.4
2018-Apr-11 17:53N 41°17' W 072°06'614.2
2018-Apr-11 17:26N 41°12' W 072°11'2 1.6
2018-Apr-11 16:03N 41°10' W 072°13'112.0
2018-Apr-11 15:58N 41°11' W 072°13'6 2.6
2018-Apr-11 13:45N 41°15' W 072°07'413.8
2018-Apr-11 13:26N 41°12' W 072°11'2 1.7
2018-Apr-11 12:01N 41°11' W 072°14'012.5
2018-Apr-11 12:00N 41°11' W 072°14'8 0.7
2018-Apr-10 23:54N 41°17' W 072°06'612.9
2018-Apr-10 23:24N 41°12' W 072°12'2 1.2
2018-Apr-10 21:57N 41°11' W 072°14'6 3.0
2018-Apr-10 19:47N 41°15' W 072°07'513.2
2018-Apr-10 19:25N 41°12' W 072°12'1 0.6
2018-Apr-10 18:00N 41°11' W 072°13'  
Track history (hours):
 
Tides and Currents Weather Stations Pressure Air Temp Water Temp Dewpoint Dewpoint Depression Visibility Wind Speed Wind Dir Waves Ship Positions

Susan Ann

Owner: CROSS SOUND FERRY SERVICES INC, NEW LONDON, CT. More information available from US FCC via Universal Licensing System and Coast Guard Vessel Documentation Center.

Last reported at 2018-Apr-20 16:00 UTC. Time now 2018-Apr-20 16:48 UTC.
Position N 41°11' W 072°14'.

Length 72 m; draft 4 m.

Type: Passenger vessel. MMSI: 367354350.

Date/timePositionNaut miles runAvg speedWind from/ knotsBaromVisibWave heightAir tempDewpointWater temp
2018-Apr-20 16:00N 41°11' W 072°14'5 2.2
2018-Apr-20 13:44N 41°14' W 072°09'313.4
2018-Apr-20 13:30N 41°12' W 072°12'2 1.2
2018-Apr-20 12:06N 41°11' W 072°13'212.3
2018-Apr-20 11:56N 41°12' W 072°12'6 0.5
2018-Apr-19 23:55N 41°17' W 072°06'9 5.1
2018-Apr-19 22:12N 41°10' W 072°13'211.4
2018-Apr-19 22:00N 41°12' W 072°12'7 3.4
2018-Apr-19 19:52N 41°17' W 072°05'10 5.5
2018-Apr-19 18:08N 41°09' W 072°13'212.6
2018-Apr-19 17:59N 41°11' W 072°13'6 2.8
2018-Apr-19 15:51N 41°16' W 072°08'411.7
2018-Apr-19 15:28N 41°12' W 072°12'2 1.4
2018-Apr-19 13:58N 41°11' W 072°13'8 3.9
2018-Apr-19 11:54N 41°17' W 072°06'613.7
2018-Apr-19 11:30N 41°13' W 072°11'4 0.4
2018-Apr-19 00:14N 41°09' W 072°14'2 8.9
2018-Apr-18 23:59N 41°11' W 072°13'613.3
2018-Apr-18 23:30N 41°16' W 072°07'2 1.0
2018-Apr-18 21:53N 41°17' W 072°05'615.0
2018-Apr-18 21:29N 41°12' W 072°11'4 3.3
2018-Apr-18 20:19N 41°09' W 072°14'310.8
2018-Apr-18 20:00N 41°12' W 072°12'6 2.8
2018-Apr-18 17:57N 41°16' W 072°07'613.6
2018-Apr-18 17:30N 41°12' W 072°13'2 1.2
2018-Apr-18 16:13N 41°11' W 072°14'313.6
2018-Apr-18 16:01N 41°13' W 072°11'4 1.7
2018-Apr-18 13:49N 41°16' W 072°08'513.1
2018-Apr-18 13:27N 41°12' W 072°12'3 2.2
2018-Apr-18 12:15N 41°10' W 072°13'310.7
2018-Apr-18 12:00N 41°12' W 072°12'7 0.5
2018-Apr-17 23:49N 41°16' W 072°06'413.3
2018-Apr-17 23:31N 41°13' W 072°10'5 3.6
2018-Apr-17 22:13N 41°10' W 072°13'210.8
2018-Apr-17 22:00N 41°12' W 072°12'6 2.6
2018-Apr-17 19:50N 41°15' W 072°06'615.9
2018-Apr-17 19:28N 41°12' W 072°13'2 1.7
2018-Apr-17 18:18N 41°10' W 072°13'410.6
2018-Apr-17 17:54N 41°13' W 072°10'2 1.1
2018-Apr-17 15:48N 41°15' W 072°08'412.2
2018-Apr-17 15:29N 41°12' W 072°12'3 2.4
2018-Apr-17 14:12N 41°09' W 072°13'311.2
2018-Apr-17 13:55N 41°12' W 072°12'5 2.1
2018-Apr-17 11:42N 41°15' W 072°07'313.3
2018-Apr-17 11:27N 41°13' W 072°11'4 0.4
2018-Apr-17 01:15N 41°09' W 072°14'2 9.9
2018-Apr-17 01:00N 41°12' W 072°13'8 3.8
2018-Apr-16 22:53N 41°17' W 072°06'513.5
2018-Apr-16 22:30N 41°13' W 072°10'5 4.0
2018-Apr-16 21:16N 41°09' W 072°14'311.2
2018-Apr-16 21:00N 41°12' W 072°12'3 0.1
2018-Apr-16 01:24N 41°14' W 072°11'510.8
2018-Apr-16 00:54N 41°09' W 072°14'1 1.0
2018-Apr-16 00:16N 41°09' W 072°13'312.3
2018-Apr-16 00:01N 41°12' W 072°11'2 1.0
2018-Apr-15 21:44N 41°15' W 072°10'312.6
2018-Apr-15 21:29N 41°12' W 072°13'3 2.3
2018-Apr-15 20:13N 41°09' W 072°13'211.1
2018-Apr-15 20:01N 41°11' W 072°12'5 2.4
2018-Apr-15 17:48N 41°15' W 072°07'514.7
2018-Apr-15 17:27N 41°12' W 072°12'3 2.2
2018-Apr-15 16:14N 41°09' W 072°13'312.6
2018-Apr-15 16:00N 41°12' W 072°12'4 2.1
2018-Apr-15 13:56N 41°15' W 072°08'511.6
2018-Apr-15 13:29N 41°12' W 072°13'3 2.2
2018-Apr-15 12:16N 41°09' W 072°14'310.3
2018-Apr-15 12:00N 41°12' W 072°13'7 0.6
2018-Apr-15 00:06N 41°17' W 072°06'112.6
2018-Apr-14 23:59N 41°16' W 072°07'511.4
2018-Apr-14 23:31N 41°12' W 072°12'3 2.3
2018-Apr-14 22:17N 41°09' W 072°14'311.2
2018-Apr-14 22:00N 41°12' W 072°12'5 2.2
2018-Apr-14 19:46N 41°15' W 072°07'414.7
2018-Apr-14 19:29N 41°13' W 072°11'4 3.2
2018-Apr-14 18:16N 41°09' W 072°14'311.6
2018-Apr-14 18:01N 41°12' W 072°12'5 2.5
2018-Apr-14 15:49N 41°15' W 072°07'514.3
2018-Apr-14 15:29N 41°12' W 072°11'3 2.7
2018-Apr-14 14:14N 41°09' W 072°14'311.3
2018-Apr-14 14:00N 41°12' W 072°13'7 3.6
2018-Apr-14 12:02N 41°17' W 072°06'113.0
2018-Apr-14 11:59N 41°16' W 072°07'612.3
2018-Apr-14 11:31N 41°12' W 072°12'3 0.3
2018-Apr-14 00:12N 41°09' W 072°14'210.6
2018-Apr-14 00:00N 41°11' W 072°13'7 3.4
2018-Apr-13 21:52N 41°16' W 072°07'513.0
2018-Apr-13 21:28N 41°12' W 072°11'2 1.8
2018-Apr-13 20:05N 41°11' W 072°14'112.7
2018-Apr-13 19:58N 41°12' W 072°13'4 1.7
2018-Apr-13 17:35N 41°14' W 072°09'115.1
2018-Apr-13 17:30N 41°13' W 072°10'3 2.2
2018-Apr-13 16:02N 41°11' W 072°13'113.0
2018-Apr-13 15:58N 41°12' W 072°13'6 2.9
2018-Apr-13 13:52N 41°16' W 072°07'612.8
2018-Apr-13 13:26N 41°12' W 072°12'2 1.2
2018-Apr-13 11:57N 41°11' W 072°13'7 0.5
2018-Apr-12 23:46N 41°15' W 072°07'412.4
2018-Apr-12 23:26N 41°12' W 072°11'4 3.0
2018-Apr-12 22:11N 41°09' W 072°14'210.3
2018-Apr-12 22:00N 41°11' W 072°13'7 3.1
2018-Apr-12 19:50N 41°16' W 072°07'513.8
2018-Apr-12 19:30N 41°12' W 072°11'3 2.5
2018-Apr-12 18:09N 41°10' W 072°13'211.9
2018-Apr-12 18:00N 41°11' W 072°13'8 3.6
2018-Apr-12 15:50N 41°17' W 072°06'514.3
2018-Apr-12 15:30N 41°13' W 072°10'5 3.4
2018-Apr-12 14:07N 41°09' W 072°13'213.5
2018-Apr-12 14:00N 41°11' W 072°14'8 3.5
2018-Apr-12 11:50N 41°16' W 072°07'412.7
2018-Apr-12 11:30N 41°13' W 072°10'4 0.3
2018-Apr-12 00:00N 41°11' W 072°13'713.9
2018-Apr-11 23:30N 41°16' W 072°08'1 0.8
2018-Apr-11 21:56N 41°16' W 072°06'612.7
2018-Apr-11 21:27N 41°12' W 072°12'3 2.5
2018-Apr-11 20:11N 41°09' W 072°14'311.1
2018-Apr-11 19:55N 41°12' W 072°13'7 3.4
2018-Apr-11 17:53N 41°17' W 072°06'614.2
2018-Apr-11 17:26N 41°12' W 072°11'2 1.6
2018-Apr-11 16:03N 41°10' W 072°13'112.0
2018-Apr-11 15:58N 41°11' W 072°13'6 2.6
2018-Apr-11 13:45N 41°15' W 072°07'413.8
2018-Apr-11 13:26N 41°12' W 072°11'2 1.7
2018-Apr-11 12:01N 41°11' W 072°14'012.5
2018-Apr-11 12:00N 41°11' W 072°14'8 0.7
2018-Apr-10 23:54N 41°17' W 072°06'612.9
2018-Apr-10 23:24N 41°12' W 072°12'2 1.2
2018-Apr-10 21:57N 41°11' W 072°14'6 3.0
2018-Apr-10 19:47N 41°15' W 072°07'513.2
2018-Apr-10 19:25N 41°12' W 072°12'1 0.6
2018-Apr-10 18:00N 41°11' W 072°13'  

Dump ship's entire track history